Time;durP1;ratioP1;P1;durP2;ratioP2;P2;SDS_P1;SDS_P2;PMS_P1;PMS_P2;Temp;Humidity;BMP_temperature;BMP_pressure;BME280_temperature;BME280_humidity;BME280_pressure;Samples;Min_cycle;Max_cycle;Signal;HPM_P1;HPM_P2
2021/05/23 04:02:39;;;;;;;3.20;3.00;;;9.50;99.90;;;;;;4959218;23;20248;-73
2021/05/23 04:05:07;;;;;;;8.75;3.42;;;9.60;99.90;;;;;;4956693;29;20213;-74
2021/05/23 04:07:33;;;;;;;3.55;3.25;;;9.60;99.90;;;;;;4939921;29;20210;-73
2021/05/23 04:09:59;;;;;;;4.05;3.20;;;9.70;99.90;;;;;;4936824;29;20202;-73
2021/05/23 04:12:28;;;;;;;4.93;2.95;;;9.70;99.90;;;;;;4935874;29;20236;-73
2021/05/23 04:14:55;;;;;;;6.10;2.70;;;9.80;99.90;;;;;;4936741;29;20301;-73
2021/05/23 04:17:21;;;;;;;5.45;3.28;;;9.90;99.90;;;;;;4935065;29;20209;-73
2021/05/23 04:19:48;;;;;;;5.32;3.10;;;10.00;99.90;;;;;;4935789;29;20242;-73
2021/05/23 04:22:15;;;;;;;2.95;2.63;;;10.10;99.90;;;;;;4935452;29;20245;-68
2021/05/23 04:24:41;;;;;;;3.33;3.13;;;10.30;99.90;;;;;;4920312;29;20225;-68
2021/05/23 04:27:08;;;;;;;3.30;3.00;;;10.90;99.90;;;;;;4925585;29;20225;-68
2021/05/23 04:29:36;;;;;;;4.63;2.40;;;11.50;99.90;;;;;;4935747;29;20206;-68
2021/05/23 04:32:03;;;;;;;2.90;2.55;;;11.80;99.90;;;;;;4935099;29;20230;-73
2021/05/23 04:34:29;;;;;;;3.10;2.83;;;11.70;99.90;;;;;;4935749;29;20264;-68
2021/05/23 04:36:57;;;;;;;3.25;2.92;;;11.50;99.90;;;;;;4929630;29;20246;-67
2021/05/23 04:39:23;;;;;;;5.25;2.95;;;11.30;99.90;;;;;;4918181;29;20230;-68
2021/05/23 04:41:49;;;;;;;2.65;2.42;;;11.30;99.90;;;;;;4931710;29;20222;-67
2021/05/23 04:44:16;;;;;;;3.50;3.20;;;11.40;99.90;;;;;;4928851;29;20209;-67
2021/05/23 04:46:42;;;;;;;3.10;2.95;;;11.60;99.90;;;;;;4931171;29;20229;-68
2021/05/23 04:49:08;;;;;;;2.60;2.40;;;12.10;99.90;;;;;;4917209;29;20213;-68
2021/05/23 04:51:34;;;;;;;2.10;1.73;;;12.80;99.90;;;;;;4930350;29;20488;-68
2021/05/23 04:54:01;;;;;;;3.63;2.27;;;13.60;99.90;;;;;;4917744;29;20477;-68
2021/05/23 04:56:27;;;;;;;2.87;2.10;;;14.30;99.90;;;;;;4934755;29;20820;-69
2021/05/23 04:58:54;;;;;;;2.17;2.07;;;15.00;99.90;;;;;;4916537;29;20494;-68
2021/05/23 05:01:20;;;;;;;2.23;1.90;;;15.30;99.90;;;;;;4929137;29;20490;-68
2021/05/23 05:03:46;;;;;;;2.10;2.00;;;15.00;99.90;;;;;;4917716;29;20897;-68
2021/05/23 05:06:12;;;;;;;2.07;1.90;;;14.70;99.90;;;;;;4928512;29;20465;-69
2021/05/23 05:08:39;;;;;;;2.17;1.97;;;14.90;99.90;;;;;;4934578;29;20473;-68
2021/05/23 05:11:05;;;;;;;1.70;1.70;;;14.80;99.90;;;;;;4932438;29;20493;-69
2021/05/23 05:13:32;;;;;;;2.80;2.10;;;15.10;99.90;;;;;;4930777;29;20496;-68
2021/05/23 05:15:58;;;;;;;2.20;1.73;;;15.50;99.90;;;;;;4927141;29;20469;-69
2021/05/23 05:18:24;;;;;;;2.57;2.30;;;15.80;99.90;;;;;;4917315;29;20466;-69
2021/05/23 05:20:52;;;;;;;2.60;2.40;;;16.10;99.90;;;;;;4923084;29;20536;-69
2021/05/23 05:23:18;;;;;;;2.60;1.90;;;16.30;99.90;;;;;;4932946;29;20468;-68
2021/05/23 05:25:44;;;;;;;3.90;2.37;;;16.30;99.90;;;;;;4934633;29;20512;-69
2021/05/23 05:28:11;;;;;;;2.90;2.20;;;16.20;99.90;;;;;;4934900;29;20468;-69
2021/05/23 05:30:38;;;;;;;2.33;2.23;;;16.00;99.90;;;;;;4934476;29;20507;-68
2021/05/23 05:33:05;;;;;;;3.13;2.07;;;15.80;99.90;;;;;;4919761;29;20522;-67
2021/05/23 05:35:31;;;;;;;3.50;2.00;;;15.80;99.90;;;;;;4921049;29;20461;-68
2021/05/23 05:37:57;;;;;;;2.50;2.30;;;15.50;99.90;;;;;;4921959;29;20462;-68
2021/05/23 05:40:23;;;;;;;2.00;1.90;;;15.70;99.90;;;;;;4919673;29;20489;-68
2021/05/23 05:42:49;;;;;;;6.53;2.07;;;15.80;99.90;;;;;;4922457;29;20911;-68
2021/05/23 05:45:17;;;;;;;1.67;1.57;;;16.10;99.90;;;;;;4917935;29;20522;-68
2021/05/23 05:47:43;;;;;;;1.70;1.60;;;15.90;99.90;;;;;;4934531;29;20458;-68
2021/05/23 05:50:11;;;;;;;2.00;1.93;;;15.90;99.90;;;;;;4934533;29;20477;-68
2021/05/23 05:52:37;;;;;;;3.07;2.13;;;16.20;99.90;;;;;;4928693;29;20806;-68
2021/05/23 05:55:04;;;;;;;2.10;2.00;;;16.70;99.90;;;;;;4934559;29;20465;-72
2021/05/23 05:57:30;;;;;;;2.27;2.07;;;16.80;99.90;;;;;;4934453;29;20469;-72
2021/05/23 05:59:57;;;;;;;1.93;1.93;;;16.80;99.90;;;;;;4934159;29;20493;-71
2021/05/23 06:02:24;;;;;;;2.20;1.70;;;16.50;99.90;;;;;;4926849;29;20497;-71
2021/05/23 06:04:50;;;;;;;1.90;1.90;;;16.50;99.90;;;;;;4933605;29;20959;-69
2021/05/23 06:07:17;;;;;;;2.10;1.90;;;16.60;99.90;;;;;;4934834;29;20466;-70
2021/05/23 06:09:43;;;;;;;4.00;2.03;;;16.90;99.90;;;;;;4934695;29;20491;-70
2021/05/23 06:12:09;;;;;;;3.17;1.97;;;16.90;99.90;;;;;;4933658;29;20488;-70
2021/05/23 06:14:36;;;;;;;2.03;1.83;;;17.10;99.90;;;;;;4929791;29;20550;-70
2021/05/23 06:17:02;;;;;;;3.97;2.07;;;16.80;99.90;;;;;;4933294;29;20466;-71
2021/05/23 06:19:29;;;;;;;4.00;2.50;;;16.10;99.90;;;;;;4915648;29;20486;-71
2021/05/23 06:21:55;;;;;;;3.03;2.03;;;15.60;99.90;;;;;;4930760;29;20840;-68
2021/05/23 06:24:22;;;;;;;6.90;2.20;;;15.30;99.90;;;;;;4932219;29;20473;-68
2021/05/23 06:26:48;;;;;;;4.17;2.27;;;15.70;99.90;;;;;;4932576;29;20604;-67
2021/05/23 06:29:14;;;;;;;4.43;2.43;;;16.40;99.90;;;;;;4934192;29;20469;-67
2021/05/23 06:31:40;;;;;;;2.30;1.80;;;16.20;99.90;;;;;;4932877;29;20482;-68
2021/05/23 06:34:06;;;;;;;2.63;2.43;;;15.60;99.90;;;;;;4934123;29;20477;-67
2021/05/23 06:36:33;;;;;;;4.17;2.00;;;15.40;99.90;;;;;;4927423;29;20481;-67
2021/05/23 06:38:59;;;;;;;6.30;2.30;;;15.20;99.90;;;;;;4934002;29;21001;-67
2021/05/23 06:41:26;;;;;;;1.87;1.67;;;15.20;99.90;;;;;;4930712;29;20489;-67
2021/05/23 06:43:52;;;;;;;2.87;1.97;;;15.20;99.90;;;;;;4917814;29;20458;-69
2021/05/23 06:46:19;;;;;;;3.20;2.30;;;15.80;99.90;;;;;;4931996;29;20461;-68
2021/05/23 06:48:46;;;;;;;2.33;1.87;;;16.30;99.90;;;;;;4937871;29;20849;-67
2021/05/23 06:51:13;;;;;;;1.57;1.47;;;17.10;99.90;;;;;;4936060;29;20485;-68
2021/05/23 06:53:40;;;;;;;1.80;1.70;;;17.60;99.90;;;;;;4926323;29;21009;-68
2021/05/23 06:56:07;;;;;;;1.30;1.20;;;18.10;99.90;;;;;;4932475;29;20552;-67
2021/05/23 06:58:33;;;;;;;2.17;2.00;;;19.00;99.90;;;;;;4937508;29;20462;-68
2021/05/23 07:01:00;;;;;;;2.00;1.90;;;18.90;99.90;;;;;;4936710;29;20489;-68
2021/05/23 07:03:26;;;;;;;2.43;2.23;;;19.10;99.90;;;;;;4937053;29;20472;-68
2021/05/23 07:05:52;;;;;;;2.03;1.67;;;19.00;99.80;;;;;;4937402;29;20799;-69
2021/05/23 07:08:19;;;;;;;3.70;1.60;;;19.00;99.30;;;;;;4937948;29;20530;-68
2021/05/23 07:10:46;;;;;;;3.77;1.43;;;18.80;99.60;;;;;;4938771;29;20517;-68
2021/05/23 07:13:12;;;;;;;2.03;1.80;;;19.50;98.80;;;;;;4934381;29;20562;-68
2021/05/23 07:15:39;;;;;;;2.73;1.77;;;19.80;96.80;;;;;;4943802;29;20557;-68
2021/05/23 07:18:05;;;;;;;2.70;1.70;;;19.50;96.80;;;;;;4929623;29;20470;-69
2021/05/23 07:20:32;;;;;;;2.60;1.63;;;19.60;97.20;;;;;;4927768;29;20514;-69
2021/05/23 07:22:58;;;;;;;1.87;1.77;;;20.10;96.10;;;;;;4936134;29;20543;-68
2021/05/23 07:25:24;;;;;;;14.20;12.83;;;20.80;95.80;;;;;;4937390;29;20477;-68
2021/05/23 07:27:51;;;;;;;2.10;2.00;;;20.90;93.70;;;;;;4936598;29;20975;-68
2021/05/23 07:30:18;;;;;;;3.17;1.77;;;19.80;94.50;;;;;;4936294;29;20484;-68
2021/05/23 07:32:44;;;;;;;2.33;1.77;;;19.50;95.00;;;;;;4935436;29;20512;-67
2021/05/23 07:35:11;;;;;;;2.40;2.20;;;19.20;95.40;;;;;;4936830;29;20461;-67
2021/05/23 07:37:37;;;;;;;5.70;5.20;;;19.10;96.00;;;;;;4927907;29;20463;-67
2021/05/23 07:40:04;;;;;;;1.80;1.70;;;19.50;95.90;;;;;;4935252;29;20518;-68
2021/05/23 07:42:30;;;;;;;2.70;2.00;;;19.60;95.60;;;;;;4917962;29;20470;-69
2021/05/23 07:44:58;;;;;;;1.97;1.87;;;19.60;94.20;;;;;;4933775;29;20465;-70
2021/05/23 07:47:24;;;;;;;1.53;1.50;;;19.30;94.70;;;;;;4936083;29;20462;-68
2021/05/23 07:49:50;;;;;;;1.70;1.60;;;19.40;95.10;;;;;;4936059;29;20516;-67
2021/05/23 07:52:16;;;;;;;1.80;1.57;;;19.10;94.90;;;;;;4920704;29;20482;-67
2021/05/23 07:54:42;;;;;;;1.77;1.37;;;18.80;95.40;;;;;;4929844;29;20468;-67
2021/05/23 07:57:10;;;;;;;3.03;2.13;;;18.60;94.90;;;;;;4935834;29;20790;-67
2021/05/23 07:59:36;;;;;;;2.10;1.60;;;18.80;94.60;;;;;;4935529;29;20548;-67
2021/05/23 08:02:03;;;;;;;1.70;1.60;;;18.50;95.30;;;;;;4932781;29;21025;-69
2021/05/23 08:04:30;;;;;;;2.00;1.90;;;18.30;95.90;;;;;;4936181;29;20461;-66
2021/05/23 08:06:56;;;;;;;1.40;1.40;;;18.70;96.20;;;;;;4935868;29;20477;-67
2021/05/23 08:09:22;;;;;;;3.43;1.77;;;19.10;94.10;;;;;;4929389;29;20519;-72
2021/05/23 08:11:49;;;;;;;2.60;1.80;;;19.40;93.80;;;;;;4929454;29;20479;-72
2021/05/23 08:14:16;;;;;;;2.33;1.47;;;19.50;94.00;;;;;;4924068;29;20474;-72
2021/05/23 08:16:43;;;;;;;2.30;1.63;;;19.50;93.10;;;;;;4934882;29;20470;-72
2021/05/23 08:19:10;;;;;;;1.60;1.57;;;18.70;93.10;;;;;;4936809;29;20496;-73
2021/05/23 08:21:37;;;;;;;2.50;1.50;;;18.30;94.60;;;;;;4933841;29;20553;-72
2021/05/23 08:24:04;;;;;;;2.10;1.73;;;18.40;95.30;;;;;;4931713;29;20521;-73
2021/05/23 08:26:30;;;;;;;1.80;1.20;;;18.80;95.10;;;;;;4936462;29;20485;-73
2021/05/23 08:28:56;;;;;;;1.73;1.70;;;19.10;93.80;;;;;;4933035;29;20513;-72
2021/05/23 08:31:23;;;;;;;2.43;1.40;;;18.90;94.10;;;;;;4925975;29;20497;-72
2021/05/23 08:33:49;;;;;;;4.17;1.63;;;18.30;93.60;;;;;;4926495;29;20569;-73
2021/05/23 08:36:16;;;;;;;1.60;1.50;;;18.00;94.50;;;;;;4932149;29;20458;-73
2021/05/23 08:38:42;;;;;;;3.40;1.80;;;18.00;94.60;;;;;;4925088;29;20474;-73
2021/05/23 08:41:09;;;;;;;1.40;1.30;;;18.20;94.80;;;;;;4929191;29;20484;-73
2021/05/23 08:43:36;;;;;;;1.63;1.53;;;18.40;94.10;;;;;;4922892;29;20516;-72
2021/05/23 08:46:03;;;;;;;2.40;1.40;;;18.20;94.60;;;;;;4935539;29;20472;-73
2021/05/23 08:48:29;;;;;;;2.13;2.00;;;18.30;94.90;;;;;;4918252;29;20462;-72
2021/05/23 08:50:55;;;;;;;3.60;1.97;;;18.10;94.30;;;;;;4935665;29;20485;-73
2021/05/23 08:53:22;;;;;;;1.57;1.50;;;18.30;94.70;;;;;;4928649;29;20517;-72
2021/05/23 08:55:48;;;;;;;2.10;1.60;;;18.30;94.30;;;;;;4924321;29;20474;-73
2021/05/23 08:58:15;;;;;;;2.20;1.60;;;18.10;94.40;;;;;;4923939;29;20462;-72
2021/05/23 09:00:44;;;;;;;4.03;2.13;;;17.70;94.30;;;;;;4925856;29;20494;-71
2021/05/23 09:03:21;;;;;;;2.20;2.10;;;17.40;95.00;;;;;;4914231;29;20943;-68
2021/05/23 09:05:48;;;;;;;2.20;1.37;;;17.10;95.80;;;;;;4932324;29;20856;-67
2021/05/23 09:08:16;;;;;;;1.90;1.80;;;16.80;95.90;;;;;;4918066;29;20486;-67
2021/05/23 09:10:45;;;;;;;2.87;1.80;;;16.80;96.70;;;;;;4918038;29;21036;-68
2021/05/23 09:13:11;;;;;;;1.57;1.53;;;16.60;96.80;;;;;;4926909;29;20465;-67
2021/05/23 09:15:38;;;;;;;1.73;1.50;;;16.50;97.30;;;;;;4922408;29;20458;-68
2021/05/23 09:18:07;;;;;;;1.90;1.80;;;16.60;97.60;;;;;;4943114;29;20901;-68
2021/05/23 09:20:34;;;;;;;1.67;1.57;;;16.50;97.20;;;;;;4916015;29;21003;-70
2021/05/23 09:23:01;;;;;;;4.40;2.10;;;16.40;96.90;;;;;;4921039;29;20478;-70
2021/05/23 09:25:31;;;;;;;2.63;2.50;;;16.40;97.00;;;;;;4926696;29;20501;-70
2021/05/23 09:27:59;;;;;;;1.67;1.57;;;16.40;97.60;;;;;;4925280;29;20496;-70
2021/05/23 09:30:28;;;;;;;3.13;1.67;;;16.30;96.90;;;;;;4934694;29;20543;-70
2021/05/23 09:32:56;;;;;;;2.27;2.00;;;16.10;96.90;;;;;;4930059;29;20461;-71
2021/05/23 09:35:24;;;;;;;2.20;1.67;;;16.30;97.90;;;;;;4926906;29;20497;-70
2021/05/23 09:38:01;;;;;;;3.00;2.00;;;16.50;97.20;;;;;;4924412;29;20906;-71
2021/05/23 09:40:30;;;;;;;2.13;1.97;;;16.60;96.30;;;;;;4928228;29;20504;-71
2021/05/23 09:42:58;;;;;;;1.83;1.70;;;16.40;96.60;;;;;;4929072;29;20473;-70
2021/05/23 09:45:37;;;;;;;1.70;1.70;;;16.50;96.90;;;;;;4920658;29;20473;-70
2021/05/23 09:48:05;;;;;;;1.30;1.20;;;16.60;97.10;;;;;;4915755;29;20806;-70
2021/05/23 09:50:36;;;;;;;1.43;1.33;;;16.60;96.30;;;;;;4915749;29;20541;-70
2021/05/23 09:53:03;;;;;;;1.53;1.40;;;16.80;96.20;;;;;;4925209;29;20474;-70
2021/05/23 09:55:29;;;;;;;2.10;1.63;;;16.80;96.10;;;;;;4933751;29;20461;-70
2021/05/23 09:57:56;;;;;;;1.90;1.80;;;16.60;96.30;;;;;;4929958;29;20462;-70
2021/05/23 10:00:23;;;;;;;1.53;1.50;;;16.60;96.80;;;;;;4932843;29;20482;-70
2021/05/23 10:02:54;;;;;;;3.70;1.40;;;16.80;97.90;;;;;;4933811;29;20468;-70
2021/05/23 10:05:21;;;;;;;1.47;1.30;;;17.20;97.80;;;;;;4934705;29;20478;-70
2021/05/23 10:07:47;;;;;;;1.40;1.40;;;17.30;97.10;;;;;;4934088;29;20882;-72
2021/05/23 10:10:14;;;;;;;2.70;2.07;;;17.70;96.10;;;;;;4934232;29;20461;-72
2021/05/23 10:12:41;;;;;;;1.30;1.20;;;17.70;95.80;;;;;;4933274;29;20470;-72
2021/05/23 10:15:10;;;;;;;6.03;1.60;;;17.60;95.50;;;;;;4933104;29;20934;-72
2021/05/23 10:17:39;;;;;;;1.40;1.03;;;17.70;96.00;;;;;;4934076;29;21001;-72
2021/05/23 10:20:10;;;;;;;1.20;1.20;;;18.00;95.40;;;;;;4938387;29;20489;-70
2021/05/23 10:22:37;;;;;;;1.50;1.20;;;17.90;93.80;;;;;;4918744;29;20485;-71
2021/05/23 10:25:07;;;;;;;1.20;0.97;;;17.90;94.50;;;;;;4929661;29;20934;-70
2021/05/23 10:27:38;;;;;;;2.00;1.70;;;18.00;94.00;;;;;;4937318;29;20465;-70
2021/05/23 10:30:07;;;;;;;1.77;1.67;;;18.00;94.10;;;;;;4936984;29;20458;-71
2021/05/23 10:32:35;;;;;;;1.20;1.20;;;17.80;94.80;;;;;;4937111;29;20923;-72
2021/05/23 10:35:15;;;;;;;1.13;0.90;;;17.70;93.90;;;;;;4937847;29;20942;-71
2021/05/23 10:37:42;;;;;;;1.10;1.10;;;17.40;93.70;;;;;;4937471;29;20934;-72
2021/05/23 10:40:27;;;;;;;1.50;1.40;;;17.30;93.90;;;;;;4937506;29;20481;-70
2021/05/23 10:42:55;;;;;;;1.63;1.00;;;17.30;94.30;;;;;;4937126;29;20468;-72
2021/05/23 10:45:26;;;;;;;3.27;1.23;;;17.60;94.00;;;;;;4937891;29;20466;-73
2021/05/23 10:47:53;;;;;;;1.87;1.87;;;17.80;94.00;;;;;;4937845;29;20469;-73
2021/05/23 10:50:33;;;;;;;1.13;1.13;;;18.00;94.30;;;;;;4937853;29;20453;-72
2021/05/23 10:53:00;;;;;;;2.53;0.80;;;18.10;93.50;;;;;;4937779;29;20521;-73
2021/05/23 10:55:26;;;;;;;0.90;0.90;;;18.20;93.50;;;;;;4937086;29;20540;-71
2021/05/23 10:57:54;;;;;;;1.73;0.90;;;18.20;93.40;;;;;;4937957;29;20465;-72
2021/05/23 11:00:24;;;;;;;1.23;1.20;;;18.00;92.90;;;;;;4937057;29;20525;-72
2021/05/23 11:02:52;;;;;;;1.37;1.17;;;17.70;93.00;;;;;;4936467;29;20486;-73
2021/05/23 11:05:23;;;;;;;1.83;1.00;;;17.80;93.20;;;;;;4933169;29;20951;-72
2021/05/23 11:07:57;;;;;;;4.23;3.93;;;17.90;93.60;;;;;;4924907;29;20555;-73
2021/05/23 11:10:24;;;;;;;1.00;1.00;;;18.00;92.60;;;;;;4926758;29;20464;-72
2021/05/23 11:12:53;;;;;;;0.90;0.90;;;18.10;92.60;;;;;;4937153;29;20545;-72
2021/05/23 11:15:19;;;;;;;2.07;1.97;;;18.00;92.60;;;;;;4931386;29;20520;-72
2021/05/23 11:17:48;;;;;;;1.03;1.03;;;18.00;93.00;;;;;;4934905;29;20454;-72
2021/05/23 11:20:16;;;;;;;3.70;3.40;;;17.90;93.20;;;;;;4936028;29;20500;-72
2021/05/23 11:22:46;;;;;;;2.57;0.90;;;17.70;93.10;;;;;;4937144;29;20525;-73
2021/05/23 11:25:14;;;;;;;2.10;1.37;;;17.50;92.80;;;;;;4937832;29;20484;-73
2021/05/23 11:27:41;;;;;;;1.90;1.53;;;17.40;92.70;;;;;;4936330;29;21041;-71
2021/05/23 11:30:11;;;;;;;2.10;2.10;;;17.40;93.50;;;;;;4936148;29;20980;-72
2021/05/23 11:32:38;;;;;;;1.33;1.23;;;17.50;93.90;;;;;;4936765;29;20557;-73
2021/05/23 11:35:04;;;;;;;2.20;1.60;;;17.50;93.60;;;;;;4936252;29;20870;-72
2021/05/23 11:37:39;;;;;;;1.77;1.77;;;17.60;94.50;;;;;;4937077;29;20484;-70
2021/05/23 11:40:08;;;;;;;1.57;1.57;;;17.80;93.90;;;;;;4936761;29;20821;-70
2021/05/23 11:42:40;;;;;;;1.33;1.20;;;17.80;93.20;;;;;;4935820;29;20567;-69
2021/05/23 11:45:07;;;;;;;4.40;4.00;;;17.90;93.70;;;;;;4935349;29;20493;-70
2021/05/23 11:47:44;;;;;;;1.47;1.40;;;18.00;93.40;;;;;;4937434;29;20967;-72
2021/05/23 11:50:21;;;;;;;1.20;1.20;;;18.20;92.10;;;;;;4936644;29;20521;-71
2021/05/23 11:52:49;;;;;;;1.43;1.27;;;18.00;93.20;;;;;;4935470;29;20569;-72
2021/05/23 11:55:16;;;;;;;1.90;1.00;;;17.80;92.70;;;;;;4935971;29;20584;-72
2021/05/23 11:57:42;;;;;;;0.93;0.93;;;17.70;94.00;;;;;;4936619;29;20556;-73
2021/05/23 12:00:17;;;;;;;1.67;1.57;;;17.60;94.20;;;;;;4935787;29;20489;-72
2021/05/23 12:02:46;;;;;;;0.90;0.90;;;17.60;94.60;;;;;;4936083;29;20478;-72
2021/05/23 12:05:12;;;;;;;1.80;1.03;;;17.50;94.20;;;;;;4936574;29;20658;-73
2021/05/23 12:07:43;;;;;;;2.60;1.00;;;17.50;95.10;;;;;;4924000;29;20911;-72
2021/05/23 12:10:09;;;;;;;1.10;1.10;;;17.80;94.50;;;;;;4930294;29;20483;-73
2021/05/23 12:12:36;;;;;;;2.30;2.20;;;18.00;94.30;;;;;;4937453;29;20469;-72
2021/05/23 12:15:04;;;;;;;1.73;1.00;;;18.00;93.60;;;;;;4935295;29;20468;-71
2021/05/23 12:17:31;;;;;;;1.10;1.10;;;17.80;94.00;;;;;;4936330;29;20458;-70
2021/05/23 12:19:59;;;;;;;1.70;1.63;;;17.60;93.90;;;;;;4937329;29;20485;-67
2021/05/23 12:22:27;;;;;;;1.10;1.10;;;17.50;94.60;;;;;;4935687;29;20482;-68
2021/05/23 12:24:55;;;;;;;1.60;1.53;;;17.30;94.40;;;;;;4925794;29;20473;-67
2021/05/23 12:27:26;;;;;;;1.90;1.50;;;17.20;94.10;;;;;;4936736;29;20461;-67
2021/05/23 12:29:53;;;;;;;1.53;1.53;;;17.10;94.40;;;;;;4935892;29;20945;-67
2021/05/23 12:32:20;;;;;;;1.20;0.93;;;17.10;94.80;;;;;;4935745;29;20481;-68
2021/05/23 12:34:46;;;;;;;1.43;1.30;;;17.00;95.30;;;;;;4935457;29;20462;-68
2021/05/23 12:37:15;;;;;;;2.30;2.30;;;16.90;96.00;;;;;;4936280;29;20825;-67
2021/05/23 12:39:41;;;;;;;1.43;1.33;;;16.80;95.70;;;;;;4936178;29;20488;-67
2021/05/23 12:42:07;;;;;;;2.67;2.00;;;16.80;96.40;;;;;;4935128;29;20485;-67
2021/05/23 12:44:34;;;;;;;2.63;2.53;;;16.70;96.90;;;;;;4935010;29;20470;-67
2021/05/23 12:47:11;;;;;;;1.30;1.30;;;16.70;96.70;;;;;;4935604;29;20470;-68
2021/05/23 12:49:44;;;;;;;1.80;1.70;;;16.80;97.40;;;;;;4935492;29;20844;-66
2021/05/23 12:52:13;;;;;;;1.60;1.50;;;16.90;97.00;;;;;;4935938;29;20489;-67
2021/05/23 12:54:41;;;;;;;1.60;1.60;;;16.80;97.00;;;;;;4935089;29;20465;-67
2021/05/23 12:57:07;;;;;;;2.23;1.67;;;16.70;97.30;;;;;;4935076;29;20540;-68
2021/05/23 12:59:37;;;;;;;3.23;3.03;;;16.70;97.40;;;;;;4934836;29;20535;-67
2021/05/23 13:02:05;;;;;;;4.43;2.27;;;16.70;97.90;;;;;;4934661;29;20492;-72
2021/05/23 13:04:34;;;;;;;2.33;2.17;;;16.70;97.70;;;;;;4936015;29;20469;-72
2021/05/23 13:07:02;;;;;;;4.97;4.53;;;16.80;98.30;;;;;;4936693;29;20488;-70
2021/05/23 13:09:35;;;;;;;3.13;2.83;;;16.90;97.80;;;;;;4935789;29;20544;-69
2021/05/23 13:12:03;;;;;;;2.10;2.00;;;16.90;97.90;;;;;;4917146;29;20839;-71
2021/05/23 13:14:32;;;;;;;1.67;1.57;;;16.80;97.40;;;;;;4926846;29;20952;-70
2021/05/23 13:17:00;;;;;;;1.70;1.70;;;16.80;98.60;;;;;;4935242;29;21030;-70
2021/05/23 13:19:27;;;;;;;1.67;1.60;;;16.70;98.60;;;;;;4933480;29;20494;-70
2021/05/23 13:21:57;;;;;;;1.73;1.37;;;16.70;98.60;;;;;;4936545;29;20485;-71
2021/05/23 13:24:26;;;;;;;1.70;1.60;;;16.60;98.70;;;;;;4937075;29;20911;-70
2021/05/23 13:26:54;;;;;;;2.63;1.97;;;16.70;98.70;;;;;;4935795;29;20470;-70
2021/05/23 13:29:20;;;;;;;2.40;2.30;;;16.70;98.70;;;;;;4923920;29;20975;-70
2021/05/23 13:31:47;;;;;;;3.40;3.30;;;16.70;99.40;;;;;;4916902;29;20545;-70
2021/05/23 13:34:13;;;;;;;2.50;2.30;;;16.50;99.90;;;;;;4917814;29;20463;-69
2021/05/23 13:36:40;;;;;;;4.73;4.40;;;16.30;99.90;;;;;;4918038;29;20533;-72
2021/05/23 13:39:09;;;;;;;2.37;2.37;;;16.20;99.90;;;;;;4927648;29;20485;-72
2021/05/23 13:41:37;;;;;;;3.13;3.03;;;16.20;99.90;;;;;;4936835;29;20490;-72
2021/05/23 13:44:04;;;;;;;3.43;3.13;;;16.30;99.90;;;;;;4935214;29;20476;-69
2021/05/23 13:46:33;;;;;;;3.37;3.17;;;16.30;99.90;;;;;;4935236;29;20524;-72
2021/05/23 13:49:00;;;;;;;3.30;3.10;;;16.30;99.90;;;;;;4927841;29;20809;-72
2021/05/23 13:51:26;;;;;;;3.43;3.23;;;16.20;99.90;;;;;;4916881;29;20849;-72
2021/05/23 13:53:52;;;;;;;4.67;4.47;;;16.20;99.90;;;;;;4915521;29;20977;-74
2021/05/23 13:56:20;;;;;;;3.40;3.30;;;16.30;99.90;;;;;;4916244;29;20469;-67
2021/05/23 13:58:46;;;;;;;3.67;3.47;;;16.30;99.90;;;;;;4923019;29;20894;-67
2021/05/23 14:01:12;;;;;;;3.17;3.07;;;16.30;99.90;;;;;;4934480;29;20810;-67
2021/05/23 14:03:38;;;;;;;3.73;3.53;;;16.40;99.90;;;;;;4935252;29;20473;-66
2021/05/23 14:06:05;;;;;;;3.50;3.30;;;16.30;99.90;;;;;;4936004;29;20465;-67
2021/05/23 14:08:32;;;;;;;3.00;3.00;;;16.30;99.90;;;;;;4934382;29;20472;-66
2021/05/23 14:10:59;;;;;;;3.60;3.30;;;16.30;99.90;;;;;;4934165;29;20981;-68
2021/05/23 14:13:28;;;;;;;2.30;2.30;;;16.30;99.90;;;;;;4934399;29;20895;-66
2021/05/23 14:15:54;;;;;;;3.50;3.20;;;16.10;99.90;;;;;;4934353;29;20466;-67
2021/05/23 14:18:21;;;;;;;2.57;2.57;;;16.20;99.90;;;;;;4931952;29;20856;-66
2021/05/23 14:20:47;;;;;;;2.53;2.43;;;16.30;99.90;;;;;;4915423;29;20494;-67
2021/05/23 14:23:13;;;;;;;2.77;2.67;;;16.30;99.90;;;;;;4915050;29;20590;-68
2021/05/23 14:25:39;;;;;;;2.10;2.10;;;16.30;99.90;;;;;;4926500;29;20478;-67
2021/05/23 14:28:06;;;;;;;2.00;2.00;;;16.30;99.90;;;;;;4932405;29;20919;-67
2021/05/23 14:30:34;;;;;;;2.10;2.10;;;16.40;99.90;;;;;;4925703;29;20477;-67
2021/05/23 14:33:00;;;;;;;2.47;2.37;;;16.40;99.90;;;;;;4934197;29;20958;-72
2021/05/23 14:35:27;;;;;;;2.60;2.50;;;16.50;99.90;;;;;;4931716;29;20482;-72
2021/05/23 14:37:54;;;;;;;2.63;2.53;;;16.60;99.90;;;;;;4933799;29;20872;-72
2021/05/23 14:40:22;;;;;;;2.60;2.60;;;16.50;99.90;;;;;;4925266;29;20485;-71
2021/05/23 14:42:48;;;;;;;2.57;2.57;;;16.50;99.90;;;;;;4933390;29;20480;-72
2021/05/23 14:45:14;;;;;;;2.60;2.50;;;16.40;99.90;;;;;;4933744;29;20472;-72
2021/05/23 14:47:41;;;;;;;3.47;3.37;;;16.30;99.90;;;;;;4933894;29;20458;-72
2021/05/23 14:50:09;;;;;;;2.40;2.40;;;16.20;99.90;;;;;;4924576;29;20465;-71
2021/05/23 14:52:36;;;;;;;3.90;3.70;;;16.10;99.90;;;;;;4933456;29;20493;-72
2021/05/23 14:55:08;;;;;;;4.40;4.20;;;16.10;99.90;;;;;;4934448;29;20465;-72
2021/05/23 14:57:35;;;;;;;3.20;3.10;;;16.10;99.90;;;;;;4927548;29;20496;-72
2021/05/23 15:00:01;;;;;;;4.20;4.00;;;16.00;99.90;;;;;;4914964;29;20490;-70
2021/05/23 15:02:27;;;;;;;3.77;3.57;;;16.10;99.90;;;;;;4919548;29;20501;-70
2021/05/23 15:04:54;;;;;;;2.30;2.20;;;16.20;99.90;;;;;;4936758;29;20477;-72
2021/05/23 15:07:20;;;;;;;3.23;3.13;;;16.30;99.90;;;;;;4933988;29;20469;-72
2021/05/23 15:09:47;;;;;;;2.30;2.30;;;16.30;99.90;;;;;;4937440;29;20476;-73
2021/05/23 15:12:13;;;;;;;8.53;7.60;;;16.10;99.90;;;;;;4934609;29;20969;-72
2021/05/23 15:14:40;;;;;;;3.23;3.10;;;16.00;99.90;;;;;;4918945;29;20470;-71
2021/05/23 15:17:06;;;;;;;2.57;2.37;;;15.90;99.90;;;;;;4932633;29;20490;-71
2021/05/23 15:19:32;;;;;;;2.87;2.77;;;15.90;99.90;;;;;;4918739;29;20517;-72
2021/05/23 15:21:59;;;;;;;2.83;2.60;;;16.10;99.90;;;;;;4932318;29;20489;-71
2021/05/23 15:24:25;;;;;;;2.43;2.33;;;16.40;99.90;;;;;;4936841;29;20485;-72
2021/05/23 15:26:58;;;;;;;3.03;2.83;;;16.50;99.90;;;;;;4934757;29;20469;-72
2021/05/23 15:32:11;;;;;;;2.37;2.23;;;16.40;99.90;;;;;;4931134;29;20481;-72
2021/05/23 15:34:37;;;;;;;2.47;2.27;;;16.30;99.90;;;;;;4937364;29;20462;-72
2021/05/23 15:37:05;;;;;;;2.60;2.47;;;16.30;99.90;;;;;;4936499;29;20454;-71
2021/05/23 15:39:32;;;;;;;2.77;2.53;;;16.40;99.90;;;;;;4925941;29;20524;-71
2021/05/23 15:41:58;;;;;;;2.80;2.60;;;16.60;99.90;;;;;;4923247;29;20488;-71
2021/05/23 15:44:24;;;;;;;2.77;2.67;;;16.60;99.90;;;;;;4936240;29;20474;-71
2021/05/23 15:46:51;;;;;;;3.00;2.73;;;16.70;99.90;;;;;;4935793;29;20480;-72
2021/05/23 15:49:17;;;;;;;2.63;2.53;;;16.80;99.90;;;;;;4935438;29;20458;-71
2021/05/23 15:51:43;;;;;;;2.43;2.43;;;16.80;99.90;;;;;;4936676;29;20481;-72
2021/05/23 15:54:13;;;;;;;1.77;1.77;;;16.60;99.90;;;;;;4936309;29;20469;-71
2021/05/23 15:56:39;;;;;;;1.73;1.73;;;16.40;99.90;;;;;;4933381;29;20509;-70
2021/05/23 15:59:05;;;;;;;2.37;2.20;;;16.10;99.90;;;;;;4929716;29;20474;-72
2021/05/23 16:01:32;;;;;;;2.53;2.00;;;16.00;99.90;;;;;;4917676;29;20502;-72
2021/05/23 16:03:58;;;;;;;2.10;2.10;;;15.80;99.90;;;;;;4917934;29;20478;-73
2021/05/23 16:06:26;;;;;;;2.07;2.07;;;15.70;99.90;;;;;;4917385;29;20533;-72
2021/05/23 16:08:53;;;;;;;1.87;1.87;;;15.70;99.90;;;;;;4917790;29;20466;-73
2021/05/23 16:11:21;;;;;;;2.83;2.73;;;15.60;99.90;;;;;;4917888;29;20482;-73
2021/05/23 16:13:48;;;;;;;2.37;2.10;;;15.60;99.90;;;;;;4917143;29;20475;-72
2021/05/23 16:16:15;;;;;;;2.33;2.23;;;15.50;99.90;;;;;;4920146;29;20481;-72
2021/05/23 16:18:41;;;;;;;2.03;1.93;;;15.50;99.90;;;;;;4922756;29;20466;-71
2021/05/23 16:21:10;;;;;;;2.30;2.20;;;15.40;99.90;;;;;;4928938;29;20491;-72
2021/05/23 16:23:36;;;;;;;2.50;2.30;;;15.40;99.90;;;;;;4934020;29;20542;-72
2021/05/23 16:26:03;;;;;;;1.97;1.87;;;15.20;99.90;;;;;;4920901;29;20462;-71
2021/05/23 16:28:30;;;;;;;2.43;2.23;;;15.20;99.90;;;;;;4921304;29;20481;-72
2021/05/23 16:30:57;;;;;;;2.10;2.10;;;15.00;99.90;;;;;;4922238;29;20487;-72
2021/05/23 16:33:23;;;;;;;3.23;2.37;;;14.90;99.90;;;;;;4930046;29;20459;-71
2021/05/23 16:35:49;;;;;;;2.20;2.20;;;14.80;99.90;;;;;;4927263;29;20555;-73
2021/05/23 16:38:15;;;;;;;2.10;2.10;;;14.80;99.90;;;;;;4931613;29;20836;-72
2021/05/23 16:40:42;;;;;;;2.57;2.37;;;14.80;99.90;;;;;;4921895;29;20493;-70
2021/05/23 16:43:09;;;;;;;2.30;2.20;;;14.80;99.90;;;;;;4935347;29;20469;-71
2021/05/23 16:45:36;;;;;;;2.33;2.23;;;14.70;99.90;;;;;;4935790;29;20470;-72
2021/05/23 16:48:02;;;;;;;3.23;3.03;;;14.70;99.90;;;;;;4930082;29;20509;-71
2021/05/23 16:50:28;;;;;;;2.43;2.37;;;14.60;99.90;;;;;;4934771;29;20843;-70
2021/05/23 16:52:55;;;;;;;2.80;2.50;;;14.50;99.90;;;;;;4936315;29;20874;-70